Terminal Aerodrome Forecast
Issued by NWS San Angelo, TX

Current Version | Previous Version | Text Only | Print | Product List | Glossary Off
Versions: 1 2 3 4 5 6 7 8 9 10 11 12 13 14

022
FTUS44 KSJT 200520
TAFABI
TAF
KABI 200520Z 2006/2106 18014KT P6SM FEW250
     FM200700 20015G23KT P6SM SCT012
      TEMPO 2007/2009 BKN012
     FM201500 21017G23KT P6SM SKC
     FM210000 18012KT P6SM SKC=

USA.gov is the U.S. government's official web portal to all federal, state and local government web resources and services.